Time;durP1;ratioP1;P1;durP2;ratioP2;P2;SDS_P1;SDS_P2;PMS_P1;PMS_P2;Temp;Humidity;BMP_temperature;BMP_pressure;BME280_temperature;BME280_humidity;BME280_pressure;Samples;Min_cycle;Max_cycle;Signal;HPM_P1;HPM_P2
2023/04/01 00:02:01;;;;;;;;;;;;;;;13.40;59.97;99043.63;5371313;32;33841;-65
2023/04/01 00:05:03;;;;;;;;;;;;;;;13.91;59.03;99037.28;5337597;32;35873;-62
2023/04/01 00:08:05;;;;;;;;;;;;;;;13.76;59.78;99044.53;5370246;32;33597;-63
2023/04/01 00:11:07;;;;;;;;;;;;;;;13.50;60.74;99036.72;5351628;32;33576;-63
2023/04/01 00:14:09;;;;;;;;;;;;;;;13.14;62.01;99037.56;5365331;32;44838;-64
2023/04/01 00:17:11;;;;;;;;;;;;;;;12.64;64.43;99051.62;5357986;32;33804;-64
2023/04/01 00:20:14;;;;;;;;;;;;;;;12.45;65.32;99044.97;5353054;32;33119;-64
2023/04/01 00:23:16;;;;;;;;;;;;;;;12.10;66.48;99036.78;5371802;32;33923;-62
2023/04/01 00:26:20;;;;;;;;;;;;;;;11.99;67.83;99030.56;5354149;32;33619;-61
2023/04/01 00:29:23;;;;;;;;;;;;;;;12.61;65.84;99041.28;5368475;32;33785;-62
2023/04/01 00:32:26;;;;;;;;;;;;;;;12.63;65.41;99037.59;5351246;32;33647;-63
2023/04/01 00:35:28;;;;;;;;;;;;;;;11.96;67.77;99038.66;5365403;32;35942;-62
2023/04/01 00:38:30;;;;;;;;;;;;;;;11.87;69.04;99032.22;5367068;32;33674;-63
2023/04/01 00:41:32;;;;;;;;;;;;;;;11.87;69.48;99030.44;5368135;32;33644;-65
2023/04/01 00:44:34;;;;;;;;;;;;;;;12.74;65.44;99016.59;5372271;32;33604;-64
2023/04/01 00:47:36;;;;;;;;;;;;;;;12.81;64.62;99021.44;5353019;32;33116;-63
2023/04/01 00:50:39;;;;;;;;;;;;;;;11.89;68.39;99030.31;5370099;32;36145;-61
2023/04/01 00:53:45;;;;;;;;;;;;;;;12.14;67.39;99016.38;5354555;32;34382;-61
2023/04/01 00:56:55;;;;;;;;;;;;;;;12.68;65.29;99021.44;5363684;32;33606;-66
2023/04/01 00:59:59;;;;;;;;;;;;;;;12.28;64.22;99021.53;5366654;32;32543;-62
2023/04/01 01:03:02;;;;;;;;;;;;;;;12.44;62.97;99011.66;5355059;32;33800;-65
2023/04/01 01:06:09;;;;;;;;;;;;;;;13.10;62.13;99016.75;5359877;32;33862;-62
2023/04/01 01:09:21;;;;;;;;;;;;;;;12.45;63.68;99015.97;5357446;32;44574;-62
2023/04/01 01:12:32;;;;;;;;;;;;;;;12.06;65.23;99013.41;5368041;32;33851;-62
2023/04/01 01:15:34;;;;;;;;;;;;;;;11.55;65.03;99007.97;5360044;32;33419;-64
2023/04/01 01:18:36;;;;;;;;;;;;;;;12.15;63.76;99012.78;5355062;32;33104;-63
2023/04/01 01:21:38;;;;;;;;;;;;;;;12.00;64.95;99011.19;5373779;32;34510;-65
2023/04/01 01:24:42;;;;;;;;;;;;;;;12.83;61.82;99007.22;5354963;32;44414;-63
2023/04/01 01:27:48;;;;;;;;;;;;;;;12.09;63.95;99007.94;5370183;32;33848;-64
2023/04/01 01:31:02;;;;;;;;;;;;;;;12.39;62.17;99010.28;5356741;32;33906;-61
2023/04/01 01:34:10;;;;;;;;;;;;;;;12.10;63.89;99015.72;5359774;32;33948;-60
2023/04/01 01:37:15;;;;;;;;;;;;;;;12.19;63.35;99004.59;5368671;32;46859;-62
2023/04/01 01:40:17;;;;;;;;;;;;;;;12.87;61.54;99000.75;5355354;32;33844;-65
2023/04/01 01:43:23;;;;;;;;;;;;;;;13.27;59.89;99000.63;5369739;32;34309;-65
2023/04/01 01:46:25;;;;;;;;;;;;;;;12.92;60.04;99001.28;5351252;32;33897;-64
2023/04/01 01:49:29;;;;;;;;;;;;;;;12.70;60.87;99003.75;5370341;32;33600;-64
2023/04/01 01:52:31;;;;;;;;;;;;;;;12.51;61.99;99005.97;5356940;32;34074;-63
2023/04/01 01:55:34;;;;;;;;;;;;;;;12.53;61.32;99001.44;5354953;32;34497;-63
2023/04/01 01:58:40;;;;;;;;;;;;;;;12.45;61.12;99007.25;5373184;32;33384;-64
2023/04/01 02:01:44;;;;;;;;;;;;;;;12.69;60.02;99004.72;5354440;32;46937;-65
2023/04/01 02:04:46;;;;;;;;;;;;;;;13.06;59.34;99000.31;5357851;32;34313;-63
2023/04/01 02:08:06;;;;;;;;;;;;;;;13.30;57.87;98987.19;5354452;32;33476;-63
2023/04/01 02:11:09;;;;;;;;;;;;;;;13.03;58.72;99003.16;5357766;32;36482;-65
2023/04/01 02:14:21;;;;;;;;;;;;;;;12.27;60.44;99001.44;5367139;32;33758;-65
2023/04/01 02:17:26;;;;;;;;;;;;;;;12.72;59.36;98997.41;5352757;32;33678;-62
2023/04/01 02:20:28;;;;;;;;;;;;;;;12.61;59.53;98989.41;5370192;32;33582;-63
2023/04/01 02:23:30;;;;;;;;;;;;;;;13.14;58.21;98991.88;5355369;32;33544;-61
2023/04/01 02:26:32;;;;;;;;;;;;;;;13.04;57.98;98996.09;5368022;32;34034;-64
2023/04/01 02:29:34;;;;;;;;;;;;;;;12.80;59.06;98991.59;5357039;32;33209;-63
2023/04/01 02:32:37;;;;;;;;;;;;;;;12.26;60.41;98988.37;5355246;32;34333;-61
2023/04/01 02:35:39;;;;;;;;;;;;;;;12.23;60.79;98988.56;5370131;32;44933;-64
2023/04/01 02:38:42;;;;;;;;;;;;;;;12.45;60.10;98975.62;5353271;32;33396;-63
2023/04/01 02:41:44;;;;;;;;;;;;;;;11.86;62.30;98977.88;5369701;32;34607;-63
2023/04/01 02:44:46;;;;;;;;;;;;;;;12.09;62.04;98984.22;5351464;32;34290;-63
2023/04/01 02:47:48;;;;;;;;;;;;;;;12.72;59.42;98978.97;5367224;32;33674;-64
2023/04/01 02:50:50;;;;;;;;;;;;;;;12.10;60.63;98983.28;5357880;32;35324;-62
2023/04/01 02:53:52;;;;;;;;;;;;;;;11.32;63.36;98981.34;5353708;32;34127;-62
2023/04/01 02:56:54;;;;;;;;;;;;;;;11.51;63.24;98983.62;5370082;32;32865;-63
2023/04/01 02:59:56;;;;;;;;;;;;;;;11.79;62.35;98984.47;5356636;32;33685;-64
2023/04/01 03:02:57;;;;;;;;;;;;;;;11.65;62.22;98988.00;5371562;32;33883;-63
2023/04/01 03:06:06;;;;;;;;;;;;;;;11.90;61.32;98972.28;5343339;32;33737;-62
2023/04/01 03:09:08;;;;;;;;;;;;;;;11.54;62.77;98990.50;5365883;32;43471;-61
2023/04/01 03:12:10;;;;;;;;;;;;;;;11.53;62.91;98983.56;5360294;32;34342;-62
2023/04/01 03:15:14;;;;;;;;;;;;;;;11.35;63.69;98990.84;5354077;32;34437;-61
2023/04/01 03:18:15;;;;;;;;;;;;;;;11.38;63.62;98991.47;5371123;32;33234;-65
2023/04/01 03:21:19;;;;;;;;;;;;;;;11.49;63.34;98974.16;5354573;32;34153;-63
2023/04/01 03:24:21;;;;;;;;;;;;;;;11.62;63.42;98973.25;5370435;32;34244;-62
2023/04/01 03:27:23;;;;;;;;;;;;;;;11.98;62.03;98974.44;5353158;32;34236;-64
2023/04/01 03:30:25;;;;;;;;;;;;;;;11.92;61.60;98982.75;5364537;32;34206;-65
2023/04/01 03:33:27;;;;;;;;;;;;;;;11.13;63.73;98980.84;5359471;32;34000;-63
2023/04/01 03:36:29;;;;;;;;;;;;;;;11.99;62.45;98998.97;5353635;32;33536;-64
2023/04/01 03:39:31;;;;;;;;;;;;;;;12.04;60.54;98984.53;5370368;32;34604;-64
2023/04/01 03:42:33;;;;;;;;;;;;;;;12.06;61.27;98998.47;5351835;32;33744;-63
2023/04/01 03:45:36;;;;;;;;;;;;;;;12.07;61.85;98999.28;5367123;32;33766;-65
2023/04/01 03:48:38;;;;;;;;;;;;;;;11.97;61.71;99001.69;5353405;32;33549;-60
2023/04/01 03:51:40;;;;;;;;;;;;;;;11.92;61.34;99017.81;5364224;32;44649;-64
2023/04/01 03:54:42;;;;;;;;;;;;;;;11.45;63.26;99014.75;5361115;32;34436;-65
2023/04/01 03:57:44;;;;;;;;;;;;;;;11.91;61.72;99017.87;5353531;32;33893;-65
2023/04/01 04:00:46;;;;;;;;;;;;;;;11.39;63.05;99014.19;5371875;32;33116;-65
2023/04/01 04:03:49;;;;;;;;;;;;;;;11.86;62.33;99014.75;5344990;32;33744;-62
2023/04/01 04:06:51;;;;;;;;;;;;;;;12.79;59.11;99012.81;5362571;32;35666;-65
2023/04/01 04:09:53;;;;;;;;;;;;;;;11.46;63.02;99019.06;5355226;32;33241;-62
2023/04/01 04:12:55;;;;;;;;;;;;;;;12.20;60.68;99018.59;5362158;32;34020;-64
2023/04/01 04:15:58;;;;;;;;;;;;;;;12.29;60.71;99017.97;5364573;32;34589;-61
2023/04/01 04:19:00;;;;;;;;;;;;;;;12.39;60.58;99024.31;5351932;32;34145;-65
2023/04/01 04:22:02;;;;;;;;;;;;;;;12.07;60.85;99015.09;5370131;32;33722;-62
2023/04/01 04:25:04;;;;;;;;;;;;;;;12.03;61.08;99003.91;5353758;32;33933;-61
2023/04/01 04:28:06;;;;;;;;;;;;;;;12.52;59.66;99021.69;5368908;32;34199;-63
2023/04/01 04:31:08;;;;;;;;;;;;;;;12.58;58.89;99015.97;5355980;32;33379;-62
2023/04/01 04:34:10;;;;;;;;;;;;;;;12.50;59.03;99015.69;5358187;32;45604;-62
2023/04/01 04:37:12;;;;;;;;;;;;;;;12.39;59.68;99013.75;5364279;32;33842;-62
2023/04/01 04:40:14;;;;;;;;;;;;;;;12.18;59.77;99018.69;5353060;32;34592;-61
2023/04/01 04:43:16;;;;;;;;;;;;;;;12.31;59.51;99015.25;5366987;32;34288;-63
2023/04/01 04:46:18;;;;;;;;;;;;;;;12.12;59.81;99002.47;5348718;32;33548;-63
2023/04/01 04:49:20;;;;;;;;;;;;;;;12.09;59.56;98989.50;5368348;32;34353;-63
2023/04/01 04:52:22;;;;;;;;;;;;;;;12.04;60.27;99012.66;5354627;32;34586;-62
2023/04/01 04:55:24;;;;;;;;;;;;;;;12.02;59.64;99001.38;5345169;32;31514;-63
2023/04/01 04:58:26;;;;;;;;;;;;;;;11.96;60.43;99001.78;5364020;32;34556;-63
2023/04/01 05:01:28;;;;;;;;;;;;;;;12.32;59.20;98987.94;5351865;32;33679;-61
2023/04/01 05:04:33;;;;;;;;;;;;;;;12.71;58.00;99006.28;5357732;32;33953;-63
2023/04/01 05:07:35;;;;;;;;;;;;;;;12.95;56.63;99003.72;5351334;32;34071;-61
2023/04/01 05:10:37;;;;;;;;;;;;;;;12.35;58.26;98995.63;5373009;32;33184;-62
2023/04/01 05:13:39;;;;;;;;;;;;;;;12.22;57.78;99003.53;5353942;32;44179;-62
2023/04/01 05:16:41;;;;;;;;;;;;;;;12.68;57.44;99006.47;5356817;32;32750;-65
2023/04/01 05:19:43;;;;;;;;;;;;;;;13.48;54.40;99006.12;5365622;32;33925;-63
2023/04/01 05:22:45;;;;;;;;;;;;;;;13.19;54.89;99002.91;5354174;32;33003;-64
2023/04/01 05:25:48;;;;;;;;;;;;;;;13.47;54.16;99007.09;5372507;32;33040;-65
2023/04/01 05:28:49;;;;;;;;;;;;;;;13.80;53.01;98996.69;5355227;32;33226;-66
2023/04/01 05:31:51;;;;;;;;;;;;;;;14.61;50.83;99003.72;5368549;32;33803;-63
2023/04/01 05:34:54;;;;;;;;;;;;;;;14.69;50.05;99005.81;5358248;32;35190;-62
2023/04/01 05:37:56;;;;;;;;;;;;;;;13.99;51.36;99017.28;5358765;32;34489;-65
2023/04/01 05:41:01;;;;;;;;;;;;;;;15.02;48.30;99006.75;5369021;32;35112;-64
2023/04/01 05:44:04;;;;;;;;;;;;;;;14.56;49.30;99015.66;5351457;32;33649;-63
2023/04/01 05:47:05;;;;;;;;;;;;;;;15.96;45.72;99009.66;5367541;32;33736;-63
2023/04/01 05:50:11;;;;;;;;;;;;;;;15.58;46.31;99009.28;5355875;32;34066;-63
2023/04/01 05:53:13;;;;;;;;;;;;;;;15.51;45.76;99003.66;5369012;32;44532;-61
2023/04/01 05:56:15;;;;;;;;;;;;;;;14.44;48.37;99012.13;5358992;32;34194;-63
2023/04/01 05:59:17;;;;;;;;;;;;;;;14.95;47.46;99002.94;5356650;32;34282;-61
2023/04/01 06:02:19;;;;;;;;;;;;;;;14.73;48.59;99006.38;5370945;32;34183;-62
2023/04/01 06:05:22;;;;;;;;;;;;;;;14.24;48.55;99003.06;5341341;32;32997;-64
2023/04/01 06:08:24;;;;;;;;;;;;;;;14.60;48.18;99010.00;5371064;32;34090;-64
2023/04/01 06:11:33;;;;;;;;;;;;;;;14.36;48.37;99014.47;5331107;32;824245;-65
2023/04/01 06:14:41;;;;;;;;;;;;;;;14.33;48.86;99015.56;5368090;32;32980;-62
2023/04/01 06:17:43;;;;;;;;;;;;;;;13.94;49.71;99023.84;5360268;32;45285;-64
2023/04/01 06:20:47;;;;;;;;;;;;;;;13.94;49.94;99018.56;5355538;32;33978;-64
2023/04/01 06:24:12;;;;;;;;;;;;;;;13.69;50.47;99019.53;5372300;32;33004;-62
2023/04/01 06:27:17;;;;;;;;;;;;;;;13.50;50.41;99015.59;5355077;32;45032;-66
2023/04/01 06:30:28;;;;;;;;;;;;;;;13.34;51.04;99007.12;5369871;32;33195;-64
2023/04/01 06:33:33;;;;;;;;;;;;;;;13.68;50.56;99013.41;5356401;32;34787;-66
2023/04/01 06:36:53;;;;;;;;;;;;;;;13.62;50.39;98998.03;5354829;32;33802;-64
2023/04/01 06:40:14;;;;;;;;;;;;;;;14.69;47.93;99016.38;5369592;32;33561;-64
2023/04/01 06:43:16;;;;;;;;;;;;;;;14.86;46.93;99020.34;5352173;32;44355;-65
2023/04/01 06:46:28;;;;;;;;;;;;;;;14.20;48.85;99021.91;5366858;32;34670;-64
2023/04/01 06:49:39;;;;;;;;;;;;;;;14.19;49.15;99017.56;5361235;32;34182;-65
2023/04/01 06:52:41;;;;;;;;;;;;;;;14.06;49.28;99026.44;5354326;32;44674;-62
2023/04/01 06:55:45;;;;;;;;;;;;;;;15.36;46.36;99021.62;5372141;32;33634;-62
2023/04/01 06:58:56;;;;;;;;;;;;;;;15.06;46.47;99030.19;5353072;32;33046;-67
2023/04/01 07:02:04;;;;;;;;;;;;;;;14.77;47.50;99032.50;5367208;32;33598;-63
2023/04/01 07:05:06;;;;;;;;;;;;;;;14.72;47.45;99028.50;5344018;32;34161;-64
2023/04/01 07:08:09;;;;;;;;;;;;;;;14.36;48.40;99032.97;5354780;32;35279;-64
2023/04/01 07:11:17;;;;;;;;;;;;;;;15.45;45.85;99025.31;5369797;32;34418;-64
2023/04/01 07:14:35;;;;;;;;;;;;;;;15.36;46.19;99023.44;5353014;32;33236;-63
2023/04/01 07:17:37;;;;;;;;;;;;;;;14.76;47.24;99022.03;5370150;32;33117;-64
2023/04/01 07:20:39;;;;;;;;;;;;;;;15.78;45.00;99021.81;5356806;32;44814;-64
2023/04/01 07:23:42;;;;;;;;;;;;;;;15.27;45.82;99010.94;5362367;32;34356;-63
2023/04/01 07:26:44;;;;;;;;;;;;;;;16.25;43.58;99020.50;5358058;32;35463;-64
2023/04/01 07:29:48;;;;;;;;;;;;;;;16.81;42.53;99016.66;5355009;32;32945;-62
2023/04/01 07:32:53;;;;;;;;;;;;;;;17.12;41.77;99022.78;5371269;32;33018;-65
2023/04/01 07:35:57;;;;;;;;;;;;;;;15.85;44.20;99022.12;5355520;32;36040;-62
2023/04/01 07:39:03;;;;;;;;;;;;;;;15.86;44.36;99027.31;5366606;32;33542;-64
2023/04/01 07:42:05;;;;;;;;;;;;;;;15.39;45.49;99031.13;5355932;32;34834;-65
2023/04/01 07:45:16;;;;;;;;;;;;;;;15.30;45.86;99030.06;5354723;32;33908;-63
2023/04/01 07:48:21;;;;;;;;;;;;;;;17.32;41.73;99031.63;5368534;32;36271;-64
2023/04/01 07:51:59;;;;;;;;;;;;;;;17.15;41.93;99024.34;5353422;32;33893;-65
2023/04/01 07:55:06;;;;;;;;;;;;;;;17.35;40.98;99031.38;5275898;32;34146;-64
2023/04/01 07:58:15;;;;;;;;;;;;;;;18.04;39.63;99028.72;5355364;32;44921;-64
2023/04/01 08:01:20;;;;;;;;;;;;;;;17.02;41.03;99037.84;5352436;32;33910;-63
2023/04/01 08:04:24;;;;;;;;;;;;;;;16.70;42.34;99033.50;5359540;32;34274;-62
2023/04/01 08:07:29;;;;;;;;;;;;;;;15.34;44.86;99034.16;5351773;32;34472;-64
2023/04/01 08:10:34;;;;;;;;;;;;;;;15.77;44.40;99030.69;5370118;32;33146;-64
2023/04/01 08:14:11;;;;;;;;;;;;;;;16.04;43.87;99043.50;5355605;32;33772;-63
2023/04/01 08:17:13;;;;;;;;;;;;;;;16.56;42.93;99043.59;5281697;32;34496;-65
2023/04/01 08:20:33;;;;;;;;;;;;;;;16.01;43.54;99042.91;5371624;32;33882;-64
2023/04/01 08:23:44;;;;;;;;;;;;;;;16.36;43.55;99037.28;5350253;32;33702;-66
2023/04/01 08:26:48;;;;;;;;;;;;;;;16.37;43.46;99039.81;5371162;32;44676;-64
2023/04/01 08:29:56;;;;;;;;;;;;;;;16.75;42.32;99035.75;5356189;32;33981;-62
2023/04/01 08:33:00;;;;;;;;;;;;;;;17.05;41.13;99033.09;5354737;32;33140;-63
2023/04/01 08:36:22;;;;;;;;;;;;;;;16.59;41.74;99043.31;5370536;32;34250;-63
2023/04/01 08:39:24;;;;;;;;;;;;;;;15.90;44.00;99043.78;5322635;32;32839;-64
2023/04/01 08:43:02;;;;;;;;;;;;;;;15.61;44.50;99036.38;5367073;32;34470;-63
2023/04/01 08:46:04;;;;;;;;;;;;;;;15.95;44.43;99031.81;5262214;32;33919;-65
2023/04/01 08:49:16;;;;;;;;;;;;;;;17.33;41.00;99026.22;5353949;32;35254;-62
2023/04/01 08:52:22;;;;;;;;;;;;;;;16.46;42.92;99031.09;5361039;32;35384;-63
2023/04/01 08:55:24;;;;;;;;;;;;;;;16.61;43.19;99031.59;5347089;32;33833;-65
2023/04/01 08:58:37;;;;;;;;;;;;;;;18.19;39.50;99025.63;5368248;32;34618;-64
2023/04/01 09:01:55;;;;;;;;;;;;;;;18.03;39.96;99042.13;5358101;32;45291;-65
2023/04/01 09:05:05;;;;;;;;;;;;;;;17.37;41.01;99041.84;5342370;32;33775;-64
2023/04/01 09:08:17;;;;;;;;;;;;;;;16.97;41.78;99040.03;5370659;32;33818;-64
2023/04/01 09:11:25;;;;;;;;;;;;;;;15.96;44.30;99040.63;5356462;32;32480;-64
2023/04/01 09:14:40;;;;;;;;;;;;;;;16.52;43.07;99041.16;5369556;32;34007;-65
2023/04/01 09:18:01;;;;;;;;;;;;;;;16.46;43.57;99039.03;5352987;32;47095;-64
2023/04/01 09:21:15;;;;;;;;;;;;;;;18.40;39.45;99018.31;5355132;32;33412;-64
2023/04/01 09:24:30;;;;;;;;;;;;;;;17.43;41.31;99028.03;5369911;32;44707;-65
2023/04/01 09:27:37;;;;;;;;;;;;;;;17.62;40.84;99032.56;5356155;32;32934;-63
2023/04/01 09:30:43;;;;;;;;;;;;;;;17.20;41.82;99032.75;5367063;32;44359;-64
2023/04/01 09:34:04;;;;;;;;;;;;;;;17.39;41.30;99031.94;5357395;32;33993;-64
2023/04/01 09:37:09;;;;;;;;;;;;;;;16.02;44.07;99040.09;5355015;32;33697;-62
2023/04/01 09:40:30;;;;;;;;;;;;;;;15.34;46.14;99026.22;5370818;32;44950;-64
2023/04/01 09:43:50;;;;;;;;;;;;;;;14.92;47.20;99037.53;5350629;32;33908;-62
2023/04/01 09:46:58;;;;;;;;;;;;;;;15.24;47.09;99042.94;5360815;32;33923;-64
2023/04/01 09:50:00;;;;;;;;;;;;;;;14.93;47.85;99033.94;5366392;32;33785;-65
2023/04/01 09:53:02;;;;;;;;;;;;;;;14.76;48.50;99043.19;5355070;32;33888;-64
2023/04/01 09:56:20;;;;;;;;;;;;;;;15.11;47.85;99040.41;5371622;32;35844;-62
2023/04/01 09:59:40;;;;;;;;;;;;;;;15.73;45.72;99053.12;5355140;32;33157;-64
2023/04/01 10:02:51;;;;;;;;;;;;;;;15.17;46.94;99054.00;5363884;32;46979;-63
2023/04/01 10:06:16;;;;;;;;;;;;;;;14.82;48.28;99062.06;5352685;32;33626;-62
2023/04/01 10:09:18;;;;;;;;;;;;;;;14.34;49.53;99051.59;5332122;32;33417;-66
2023/04/01 10:12:23;;;;;;;;;;;;;;;15.38;47.29;99056.75;5374889;32;33502;-66
2023/04/01 10:15:29;;;;;;;;;;;;;;;15.95;46.01;99050.38;5357208;32;33751;-65
2023/04/01 10:18:35;;;;;;;;;;;;;;;16.24;45.53;99055.94;5364692;32;33834;-64
2023/04/01 10:21:51;;;;;;;;;;;;;;;15.50;47.69;99052.28;5362049;32;33866;-62
2023/04/01 10:25:16;;;;;;;;;;;;;;;15.88;45.51;99048.34;5353649;32;34829;-62
2023/04/01 10:28:30;;;;;;;;;;;;;;;16.34;44.95;99052.50;5369354;32;35192;-65
2023/04/01 10:31:38;;;;;;;;;;;;;;;16.75;43.46;99047.22;5356366;32;33901;-63
2023/04/01 10:34:55;;;;;;;;;;;;;;;15.97;45.78;99050.25;5357250;32;44784;-63
2023/04/01 10:38:16;;;;;;;;;;;;;;;15.69;46.79;99055.16;5370376;32;33464;-63
2023/04/01 10:41:36;;;;;;;;;;;;;;;16.68;44.15;99048.69;5353903;32;44650;-65
2023/04/01 10:44:56;;;;;;;;;;;;;;;15.57;46.76;99034.94;5365353;32;43938;-63
2023/04/01 10:48:05;;;;;;;;;;;;;;;16.82;43.54;99060.78;5357236;32;33931;-62
2023/04/01 10:51:28;;;;;;;;;;;;;;;17.05;43.54;99042.88;5353958;32;47135;-64
2023/04/01 10:54:33;;;;;;;;;;;;;;;15.95;45.28;99053.03;5370205;32;34198;-63
2023/04/01 10:58:01;;;;;;;;;;;;;;;15.83;45.51;99050.53;5354925;32;34518;-65
2023/04/01 11:01:18;;;;;;;;;;;;;;;16.32;44.66;99049.13;5339920;32;33826;-65
2023/04/01 11:04:20;;;;;;;;;;;;;;;16.07;45.08;99039.75;5355810;32;34776;-63
2023/04/01 11:07:40;;;;;;;;;;;;;;;16.16;45.83;99046.91;5353581;32;33769;-63
2023/04/01 11:10:45;;;;;;;;;;;;;;;15.45;46.15;99033.28;5369840;32;44697;-62
2023/04/01 11:13:55;;;;;;;;;;;;;;;14.95;48.01;99039.97;5355202;32;33756;-64
2023/04/01 11:17:16;;;;;;;;;;;;;;;15.28;46.33;99018.75;5361925;32;33927;-63
2023/04/01 11:20:18;;;;;;;;;;;;;;;15.83;45.27;99022.22;5368929;32;36588;-61
2023/04/01 11:23:32;;;;;;;;;;;;;;;16.90;42.20;99017.66;5354911;32;33129;-62
2023/04/01 11:26:40;;;;;;;;;;;;;;;16.09;43.36;99040.44;5369743;32;33634;-62
2023/04/01 11:29:42;;;;;;;;;;;;;;;17.12;41.53;99024.59;5354793;32;44289;-64
2023/04/01 11:33:04;;;;;;;;;;;;;;;16.80;41.77;99017.59;5359289;32;33822;-64
2023/04/01 11:36:25;;;;;;;;;;;;;;;16.79;41.43;99019.44;5365187;32;33766;-62
2023/04/01 11:39:46;;;;;;;;;;;;;;;17.09;41.23;99036.31;5355502;32;34050;-62
2023/04/01 11:43:14;;;;;;;;;;;;;;;15.07;45.51;99047.78;5366835;32;32926;-63
2023/04/01 11:46:48;;;;;;;;;;;;;;;14.94;46.42;99041.78;5362099;32;34770;-62
2023/04/01 11:50:09;;;;;;;;;;;;;;;15.25;45.74;99049.91;5354535;32;34797;-61
2023/04/01 11:53:15;;;;;;;;;;;;;;;15.20;45.84;99050.31;5369795;32;48547;-62
2023/04/01 11:56:21;;;;;;;;;;;;;;;14.54;47.64;99068.63;5341065;32;33550;-63
2023/04/01 11:59:30;;;;;;;;;;;;;;;14.53;47.46;99059.00;5359645;32;33824;-62
2023/04/01 12:02:41;;;;;;;;;;;;;;;14.46;47.14;99055.16;5363480;32;33954;-64
2023/04/01 12:06:02;;;;;;;;;;;;;;;15.17;45.96;99039.94;5340870;32;45078;-63
2023/04/01 12:09:22;;;;;;;;;;;;;;;14.62;47.19;99045.09;5368228;32;33762;-63
2023/04/01 12:12:36;;;;;;;;;;;;;;;15.15;45.85;99049.81;5355142;32;33720;-63
2023/04/01 12:16:14;;;;;;;;;;;;;;;15.03;45.47;99048.97;5353535;32;46120;-66
2023/04/01 12:19:32;;;;;;;;;;;;;;;15.65;44.50;99044.97;5350727;32;47054;-63
2023/04/01 12:22:53;;;;;;;;;;;;;;;16.23;43.23;99041.00;5354464;32;34225;-64
2023/04/01 12:25:55;;;;;;;;;;;;;;;15.16;44.80;99043.56;5359434;32;34130;-64
2023/04/01 12:29:16;;;;;;;;;;;;;;;15.36;44.54;99045.44;5363943;32;34355;-62
2023/04/01 12:32:21;;;;;;;;;;;;;;;16.03;42.93;99044.44;5356600;32;35759;-64
2023/04/01 12:35:37;;;;;;;;;;;;;;;15.92;43.74;99050.63;5371426;32;33877;-65
2023/04/01 12:38:54;;;;;;;;;;;;;;;16.10;43.52;99042.97;5356344;32;44625;-65
2023/04/01 12:41:56;;;;;;;;;;;;;;;15.35;45.21;99054.34;5356836;32;32891;-64
2023/04/01 12:44:58;;;;;;;;;;;;;;;15.15;45.76;99048.00;5363896;32;33778;-63
2023/04/01 12:48:06;;;;;;;;;;;;;;;15.96;44.31;99052.06;5354081;32;34166;-64
2023/04/01 12:51:17;;;;;;;;;;;;;;;15.88;44.08;99043.91;5369818;32;35248;-64
2023/04/01 12:54:19;;;;;;;;;;;;;;;16.26;43.18;99037.22;5354909;32;44919;-62
2023/04/01 12:57:36;;;;;;;;;;;;;;;18.00;39.23;99040.59;5368360;32;32979;-64
2023/04/01 13:00:41;;;;;;;;;;;;;;;17.74;40.23;99031.50;5363735;32;47832;-61
2023/04/01 13:04:00;;;;;;;;;;;;;;;17.77;39.20;99026.72;5347533;32;33585;-64
2023/04/01 13:07:21;;;;;;;;;;;;;;;16.82;41.59;99028.97;5366023;32;33775;-64
2023/04/01 13:10:26;;;;;;;;;;;;;;;16.97;40.82;99030.28;5357702;32;34443;-62
2023/04/01 13:13:34;;;;;;;;;;;;;;;17.61;39.75;99029.06;5362874;32;33971;-64
2023/04/01 13:16:40;;;;;;;;;;;;;;;18.23;38.27;99009.25;5364597;32;33469;-62
2023/04/01 13:19:54;;;;;;;;;;;;;;;18.67;37.44;99025.56;5356218;32;46722;-64
2023/04/01 13:23:06;;;;;;;;;;;;;;;18.44;38.36;99018.87;5372305;32;34052;-64
2023/04/01 13:26:20;;;;;;;;;;;;;;;17.50;38.92;99023.84;5354394;32;34076;-62
2023/04/01 13:29:25;;;;;;;;;;;;;;;17.95;38.82;99029.53;5363421;32;33401;-64
2023/04/01 13:32:45;;;;;;;;;;;;;;;17.35;39.62;99022.56;5362334;32;34260;-64
2023/04/01 13:35:47;;;;;;;;;;;;;;;18.97;36.76;99013.00;5355882;32;44637;-62
2023/04/01 13:38:58;;;;;;;;;;;;;;;19.02;36.56;99018.72;5370592;32;33406;-62
2023/04/01 13:42:06;;;;;;;;;;;;;;;18.25;38.45;99019.72;5353377;32;33886;-64
2023/04/01 13:45:14;;;;;;;;;;;;;;;18.45;37.50;99033.84;5364509;32;33250;-66
2023/04/01 13:48:27;;;;;;;;;;;;;;;17.97;37.77;99035.56;5358388;32;34200;-62
2023/04/01 13:51:48;;;;;;;;;;;;;;;17.66;38.50;99032.16;5341995;32;33999;-61
2023/04/01 13:54:49;;;;;;;;;;;;;;;16.99;39.58;99041.59;5371368;32;33681;-61
2023/04/01 13:57:58;;;;;;;;;;;;;;;17.20;39.52;99032.75;5354843;32;33560;-63
2023/04/01 14:01:08;;;;;;;;;;;;;;;17.24;39.56;99040.28;5369187;32;33664;-62
2023/04/01 14:04:23;;;;;;;;;;;;;;;17.27;39.19;99039.19;5346524;32;44445;-64
2023/04/01 14:07:25;;;;;;;;;;;;;;;17.79;38.45;99048.69;5352128;32;34566;-65
2023/04/01 14:10:42;;;;;;;;;;;;;;;17.95;38.36;99049.97;5369962;32;34345;-64
2023/04/01 14:13:44;;;;;;;;;;;;;;;17.48;39.95;99050.56;5355239;32;44457;-63
2023/04/01 14:17:05;;;;;;;;;;;;;;;16.74;41.06;99052.62;5368811;32;33054;-65
2023/04/01 14:20:12;;;;;;;;;;;;;;;16.84;41.01;99045.56;5362332;32;34067;-64
2023/04/01 14:23:28;;;;;;;;;;;;;;;16.75;40.76;99039.25;5355953;32;44443;-64
2023/04/01 14:26:35;;;;;;;;;;;;;;;16.51;41.12;99042.16;5369142;32;35012;-63
2023/04/01 14:29:56;;;;;;;;;;;;;;;15.92;42.70;99048.00;5353608;32;33576;-63
2023/04/01 14:32:58;;;;;;;;;;;;;;;16.55;41.64;99042.75;5365609;32;35555;-63
2023/04/01 14:36:19;;;;;;;;;;;;;;;16.92;40.54;99032.47;5361143;32;34504;-62
2023/04/01 14:39:40;;;;;;;;;;;;;;;16.78;41.09;99038.97;5355438;32;34016;-63
2023/04/01 14:42:49;;;;;;;;;;;;;;;16.41;41.98;99043.03;5366946;32;44781;-63
2023/04/01 14:46:20;;;;;;;;;;;;;;;16.64;41.17;99036.62;5352102;32;34153;-64
2023/04/01 14:49:23;;;;;;;;;;;;;;;17.11;40.21;99041.50;5345685;32;35056;-64
2023/04/01 14:52:29;;;;;;;;;;;;;;;16.86;40.83;99032.16;5367979;32;33433;-63
2023/04/01 14:55:43;;;;;;;;;;;;;;;17.16;39.59;99034.81;5354459;32;34052;-63
2023/04/01 14:58:46;;;;;;;;;;;;;;;17.76;38.35;99026.88;5369830;32;44564;-62
2023/04/01 15:01:55;;;;;;;;;;;;;;;17.82;38.20;99035.13;5352582;32;34248;-62
2023/04/01 15:05:10;;;;;;;;;;;;;;;16.91;40.23;99029.97;5345200;32;33937;-64
2023/04/01 15:08:19;;;;;;;;;;;;;;;17.32;39.60;99037.81;5367347;32;47641;-64
2023/04/01 15:11:50;;;;;;;;;;;;;;;16.45;41.56;99039.19;5354828;32;33498;-64
2023/04/01 15:15:10;;;;;;;;;;;;;;;17.46;40.21;99035.75;5315055;32;34746;-63
2023/04/01 15:18:15;;;;;;;;;;;;;;;16.74;42.25;99032.28;5355502;32;44657;-66
2023/04/01 15:21:23;;;;;;;;;;;;;;;16.88;42.14;99038.19;5355389;32;32955;-64
2023/04/01 15:24:44;;;;;;;;;;;;;;;16.76;42.58;99040.94;5367096;32;34324;-64
2023/04/01 15:27:49;;;;;;;;;;;;;;;16.95;41.96;99042.84;5351948;32;45021;-64
2023/04/01 15:30:53;;;;;;;;;;;;;;;16.88;42.08;99051.47;5370300;32;33254;-62
2023/04/01 15:34:15;;;;;;;;;;;;;;;16.91;41.37;99037.91;5353792;32;34494;-62
2023/04/01 15:37:36;;;;;;;;;;;;;;;17.06;40.76;99036.56;5346345;32;45208;-63
2023/04/01 15:40:46;;;;;;;;;;;;;;;16.92;40.64;99045.75;5370921;32;34090;-63
2023/04/01 15:43:49;;;;;;;;;;;;;;;16.75;40.52;99043.72;5351107;32;34301;-63
2023/04/01 15:46:51;;;;;;;;;;;;;;;17.03;39.38;99047.47;5365999;32;33628;-64
2023/04/01 15:49:56;;;;;;;;;;;;;;;17.13;39.36;99053.69;5354559;32;32971;-62
2023/04/01 15:53:17;;;;;;;;;;;;;;;17.28;38.94;99049.66;5353852;32;33860;-63
2023/04/01 15:56:39;;;;;;;;;;;;;;;16.37;40.53;99055.75;5369296;32;33108;-64
2023/04/01 15:59:53;;;;;;;;;;;;;;;17.64;37.73;99050.03;5353522;32;46094;-64
2023/04/01 16:02:58;;;;;;;;;;;;;;;17.88;37.76;99062.97;5367186;32;33679;-61
2023/04/01 16:06:00;;;;;;;;;;;;;;;17.69;36.99;99061.09;5337928;32;34458;-65
2023/04/01 16:09:15;;;;;;;;;;;;;;;17.20;37.43;99065.44;5355086;32;33443;-62
2023/04/01 16:12:36;;;;;;;;;;;;;;;17.43;36.05;99065.22;5368803;32;44634;-63
2023/04/01 16:15:38;;;;;;;;;;;;;;;17.77;35.96;99068.41;5364523;32;37482;-62
2023/04/01 16:18:55;;;;;;;;;;;;;;;17.10;36.49;99069.03;5368528;32;45260;-62
2023/04/01 16:22:02;;;;;;;;;;;;;;;16.65;37.30;99074.62;5359679;32;34542;-64